Disclaimer

Please do not use the information listed here in-flight or in-navigation, as they are not provided to us by the airports but are provided by volunteers, so they might be outdated.

Search


Regions


Airport information page

Radio informations:
Tower (TWR) - 118.3 MHz
IPIALES RDO - 3488 MHz
ANDES APP - 120.1 MHz

Airport informations:
Latitude: 00° 51' 42.93" N
Longitude: 077° 40' 18.35" W
Elevation: 9765 feet - 2976 meters
Operating hours: Remarks
Operating agency: Civil government, landing fees and diplomatic clearance may be required
Timezone: UTC-5
Fuel: Unknown fuel type or whether there is any fuel.

Runway information:
06/24 - 5774 x 92 feet< - >1760 x 28 meters

Recent METARs:
SKIP 171900Z 11007KT 9999 BKN020 17/10 A3035
SKIP 171900Z 11007KT 9999 BKN020 17/10 A3035
SKIP 172000Z 14004KT 9999 FEW018TCU SCT070 17/10 A3031 RMK TCU NE

Airport on the map: